Akcaoren, Turkey

2:49 PM +03 on May 27, 2017 (GMT +0300)
Etimesgut Air Base | | Change Station

Elev 2644 ft 39.95 °N, 32.68 °E | Updated 39 minutes ago

Rain
Rain
61 °F
Feels Like 61 °F
N
7
Wind Variable Wind from SW

Today
High -- | Low -- °F
--% Chance of Precip.
Yesterday
High -- | Low -- °F
Precip. -- in
Pressure 29.92 in
Visibility 6.2 miles
Clouds Mostly Cloudy 3500 ft
Dew Point 50 °F
Humidity 68%
Rainfall 0.00 in
Snow Depth Not available.
5:25 AM 8:09 PM
Waxing Crescent, 4% visible
SPECI LTAD 271110Z 23006KT 170V290 9999 -SHRA BKN035 16/10 Q1013 TEMPO FM1200 -TSRA RMK RWY29 23006KT 190V270
Pressure 29.92 in
Visibility 6.2 miles
Clouds Mostly Cloudy 3500 ft
Dew Point 50 °F
Humidity 68%
Rainfall 0.00 in
Snow Depth Not available.
5:25 AM 8:09 PM
Waxing Crescent, 4% visible
SPECI LTAD 271110Z 23006KT 170V290 9999 -SHRA BKN035 16/10 Q1013 TEMPO FM1200 -TSRA RMK RWY29 23006KT 190V270

Get Severe Weather Alerts

Thanks for signing up!

Be on the lookout for a verification email in your inbox.

You'll start receiving the daily forecast at 6 AM.

×

10-Day Weather Forecast

×

Almanac

Astronomy

May. 27, 2017 Rise Set
Actual Time
Civil Twilight
Nautical Twilight
Astronomical Twilight
Moon
Length of Visible Light
Length of Day
Tomorrow will be .
, % of the Moon is Illuminated

Today's Extremes

Country Highs Country Lows

Community

WunderPhotos

Category 6

Welcome to Category 6. This is the collective home for Weather Underground's featured writeups by Dr. Jeff Masters (right), Bob Henson (left), Chris Burt, and other regular contributors.

Nearby

Air Quality

  Air Quality AQ Index Pollutant
Not available.

Snow Depth

Station Depth Elevation

Earthquake Activity

City Distance Mag. Time & Date
Minimum magnitude displayed is 2.5.

Coastal Water Temperatures

Place Temperature

Stations

Nearby Weather Stations

Station Location Temp. Windchill Dew Point Humidity Wind Precip. Elev Updated Type